Latest Weather Observations for Nullarbor

IDS60801

Issued at 1:51 am CST Friday 26 April 2019 (issued every 10 minutes, with the page automatically refreshed every 10 minutes)

About weather observations | Map of weather stations | Latest weather observations for SA | Other Formats
Station Details ID: 018106 Name: NULLARBOR Lat: -31.45 Lon: 130.90 Height: 64.0 m
Data from the previous 72 hours. | See also: Recent months at Nullarbor
Date/Time
CST
Temp
°C
App
Temp
°C
Dew
Point
°C
Rel
Hum
%
Delta-T
°C
Wind Press
QNH
hPa
Press
MSL
hPa
Rain since
9am
mm
Dir  Spd
km/h
Gust
km/h
Spd
kts
Gust
kts
26/01:30am 15.0 14.1 14.8 99 0.1 SSE 13 15 7 8 1026.7 1026.5 0.0
26/01:00am 13.2 12.3 12.6 96 0.3 S 9 11 5 6 1026.9 1026.7 0.0
26/12:30am 12.6 11.5 12.1 97 0.3 SW 9 9 5 5 1027.1 1026.9 0.0
26/12:00am 12.1 11.3 11.0 93 0.6 SSW 6 9 3 5 1027.1 1026.9 0.0
 
Date/Time
CST
Temp
°C
App
Temp
°C
Dew
Point
°C
Rel
Hum
%
Delta-T
°C
Wind Press
QNH
hPa
Press
MSL
hPa
Rain since
9am
mm
Dir  Spd
km/h
Gust
km/h
Spd
kts
Gust
kts
25/11:30pm 13.6 12.2 12.3 92 0.7 SSW 11 13 6 7 1027.3 1027.2 0.0
25/11:00pm 13.1 10.8 11.8 92 0.7 SSW 15 17 8 9 1027.6 1027.5 0.0
25/10:30pm 13.5 11.9 12.7 95 0.4 SSW 13 13 7 7 1027.5 1027.4 0.0
25/10:00pm 13.5 12.3 12.9 96 0.3 SSW 11 13 6 7 1027.4 1027.3 0.0
25/09:30pm 13.5 12.3 12.7 95 0.4 S 11 13 6 7 1027.5 1027.4 0.0
25/09:00pm 13.7 12.1 12.8 94 0.5 S 13 15 7 8 1027.3 1027.2 0.0
25/08:30pm 13.8 11.9 12.9 94 0.5 S 15 17 8 9 1027.1 1026.9 0.0
25/08:00pm 13.4 11.1 11.8 90 0.9 S 15 17 8 9 1027.0 1026.8 0.0
25/07:30pm 14.7 13.4 12.4 86 1.2 S 11 13 6 7 1026.9 1026.7 0.0
25/07:00pm 15.0 13.9 11.8 81 1.7 S 9 9 5 5 1026.7 1026.5 0.0
25/06:30pm 16.3 14.8 11.9 75 2.4 S 11 15 6 8 1026.6 1026.4 0.0
25/06:00pm 17.7 14.9 11.5 67 3.4 S 17 20 9 11 1026.3 1026.1 0.0
25/05:30pm 18.6 16.1 12.4 67 3.4 S 17 22 9 12 1026.1 1025.9 0.0
25/05:00pm 18.9 16.3 11.9 64 3.9 S 17 26 9 14 1026.1 1025.9 0.0
25/04:30pm 18.5 15.7 12.5 68 3.3 S 19 22 10 12 1026.1 1025.9 0.0
25/04:00pm 18.9 14.9 12.9 68 3.4 S 26 33 14 18 1026.3 1026.1 0.0
25/03:30pm 19.0 15.3 12.7 67 3.5 S 24 35 13 19 1026.1 1025.9 0.0
25/03:00pm 19.3 15.8 12.3 64 3.9 S 22 28 12 15 1026.2 1026.0 0.0
25/02:30pm 19.5 16.3 11.8 61 4.2 SSE 20 30 11 16 1026.2 1026.0 0.0
25/02:00pm 20.0 16.8 11.8 59 4.6 SSE 20 32 11 17 1026.4 1026.2 0.0
25/01:30pm 19.9 16.3 11.7 59 4.5 S 22 28 12 15 1026.7 1026.5 0.0
25/01:00pm 19.2 16.2 12.5 65 3.8 S 20 26 11 14 1027.3 1027.2 0.0
25/12:30pm 20.0 16.5 13.5 66 3.7 S 24 32 13 17 1027.6 1027.5 0.0
25/12:00pm 20.3 18.2 12.3 60 4.5 SSE 15 19 8 10 1027.8 1027.7 0.0
25/11:30am 19.4 17.7 12.4 64 3.9 SSE 13 20 7 11 1028.1 1028.0 0.0
25/11:00am 19.6 17.8 13.3 67 3.6 ESE 15 19 8 10 1028.1 1028.0 0.0
25/10:30am 18.7 18.5 14.8 78 2.3 ESE 9 15 5 8 1028.2 1028.1 0.0
25/10:14am 17.7 17.3 15.1 85 1.5 E 11 15 6 8 1028.3 1028.2 0.0
25/10:00am 16.4 16.4 16.2 99 0.1 SSE 11 19 6 10 1028.6 1028.5 0.0
25/09:47am 16.2 15.7 16.0 99 0.1 S 13 17 7 9 1028.6 1028.5 0.0
25/09:30am 16.2 15.7 16.0 99 0.1 S 13 17 7 9 1028.7 1028.6 0.0
25/09:00am 16.1 17.4 16.1 100 0.0 WNW 4 7 2 4 1028.4 1028.3 0.0
25/08:30am 15.5 17.3 15.5 100 0.0 CALM 0 0 0 0 1028.2 1028.1 0.0
25/08:00am 15.2 16.1 15.2 100 0.0 WSW 4 6 2 3 1028.0 1027.9 0.0
25/07:30am 15.0 16.6 15.0 100 0.0 CALM 0 0 0 0 1027.7 1027.6 0.0
25/07:17am 15.0 16.6 15.0 100 0.0 CALM 0 0 0 0 1027.7 1027.6 0.0
25/07:00am 14.9 15.4 14.9 100 0.0 NE 6 7 3 4 1027.5 1027.4 0.0
25/06:35am 15.2 15.5 15.0 99 0.1 ENE 7 9 4 5 1027.3 1027.2 0.0
25/06:30am 15.2 15.7 15.0 99 0.1 ENE 6 9 3 5 1027.3 1027.2 0.0
25/06:00am 15.2 16.1 15.0 99 0.1 SE 4 7 2 4 1027.0 1026.8 0.0
25/05:30am 15.1 15.9 14.9 99 0.1 ENE 4 7 2 4 1026.8 1026.6 0.0
25/05:00am 15.2 16.4 15.0 99 0.1 SSE 2 7 1 4 1026.7 1026.5 0.0
25/04:30am 15.4 17.1 15.2 99 0.1 CALM 0 2 0 1 1026.7 1026.5 0.0
25/04:00am 15.3 16.2 15.1 99 0.1 ESE 4 7 2 4 1026.6 1026.4 0.0
25/03:30am 15.3 15.6 15.1 99 0.1 ESE 7 7 4 4 1026.6 1026.4 0.0
25/03:00am 15.2 15.1 15.0 99 0.1 NE 9 13 5 7 1026.8 1026.6 0.0
25/02:30am 15.3 15.8 15.1 99 0.1 E 6 7 3 4 1027.1 1026.9 0.0
25/02:00am 15.3 15.3 15.1 99 0.1 ENE 9 11 5 6 1027.3 1027.2 0.0
25/01:30am 15.4 15.8 15.2 99 0.1 E 7 11 4 6 1027.3 1027.2 0.0
25/01:00am 15.5 15.6 15.5 100 0.0 ENE 9 13 5 7 1027.4 1027.3 0.0
25/12:50am 15.6 16.3 15.6 100 0.0 SSE 6 9 3 5 1027.4 1027.3 0.0
25/12:30am 15.6 16.1 15.6 100 0.0 SE 7 11 4 6 1027.7 1027.6 0.0
25/12:29am 15.6 16.0 15.4 99 0.1 SE 7 9 4 5 1027.7 1027.6 0.0
25/12:00am 15.8 17.3 15.6 99 0.1 SE 2 6 1 3 1027.9 1027.8 0.0
 
Date/Time
CST
Temp
°C
App
Temp
°C
Dew
Point
°C
Rel
Hum
%
Delta-T
°C
Wind Press
QNH
hPa
Press
MSL
hPa
Rain since
9am
mm
Dir  Spd
km/h
Gust
km/h
Spd
kts
Gust
kts
24/11:30pm 15.6 15.4 15.6 100 0.0 E 11 15 6 8 1028.2 1028.1 0.0
24/11:16pm 15.5 15.1 15.3 99 0.1 ENE 11 15 6 8 1028.3 1028.2 0.0
24/11:00pm 15.8 14.8 15.6 99 0.1 ENE 15 20 8 11 1028.5 1028.4 0.0
24/10:57pm 16.0 15.1 15.8 99 0.1 ENE 15 20 8 11 1028.5 1028.4 0.0
24/10:30pm 16.0 16.2 15.8 99 0.1 SSE 9 13 5 7 1028.5 1028.4 0.0
24/10:00pm 16.5 15.0 15.2 92 0.8 SE 17 24 9 13 1028.7 1028.6 0.0
24/09:30pm 17.1 15.7 14.4 84 1.5 ESE 15 19 8 10 1028.4 1028.3 0.0
24/09:00pm 17.7 16.0 14.8 83 1.7 ESE 17 20 9 11 1028.3 1028.2 0.0
24/08:30pm 17.7 16.3 14.6 82 1.8 ESE 15 19 8 10 1028.2 1028.1 0.0
24/08:00pm 17.7 16.3 14.6 82 1.8 SE 15 19 8 10 1028.0 1027.9 0.0
24/07:30pm 17.6 16.6 14.7 83 1.7 SE 13 17 7 9 1027.7 1027.6 0.0
24/07:00pm 17.4 16.0 14.5 83 1.7 SE 15 20 8 11 1027.6 1027.5 0.0
24/06:30pm 18.1 16.8 14.8 81 1.9 SE 15 19 8 10 1027.5 1027.4 0.0
24/06:00pm 18.3 16.0 14.2 77 2.3 SSE 19 22 10 12 1027.2 1027.0 0.0
24/05:30pm 18.8 16.1 13.6 72 3.0 SSE 20 28 11 15 1027.0 1026.8 0.0
24/05:00pm 19.3 15.6 12.8 66 3.7 SSE 24 30 13 16 1026.8 1026.6 0.0
24/04:30pm 19.6 15.9 12.6 64 3.9 SSE 24 30 13 16 1026.9 1026.7 0.0
24/04:00pm 19.5 15.9 13.2 67 3.6 SE 24 35 13 19 1026.9 1026.7 0.0
24/03:30pm 19.4 16.6 13.1 67 3.6 SSE 20 30 11 16 1027.0 1026.8 0.0
24/03:00pm 19.2 15.9 12.7 66 3.6 SE 22 33 12 18 1026.9 1026.7 0.0
24/02:30pm 20.0 17.0 12.5 62 4.2 SE 20 32 11 17 1027.0 1026.8 0.0
24/02:00pm 19.6 16.3 12.8 65 3.8 SSE 22 28 12 15 1027.3 1027.2 0.0
24/01:30pm 19.9 16.7 11.9 60 4.4 SE 20 26 11 14 1027.5 1027.4 0.0
24/01:00pm 20.9 18.1 13.1 61 4.5 SSE 20 30 11 16 1027.8 1027.7 0.0
24/12:30pm 20.1 17.2 12.8 63 4.1 SE 20 30 11 16 1028.1 1028.0 0.0
24/12:00pm 19.1 16.6 12.4 65 3.7 SE 17 26 9 14 1028.4 1028.3 0.0
24/11:30am 19.5 17.6 13.0 66 3.7 SE 15 22 8 12 1028.8 1028.7 0.0
24/11:00am 19.3 17.5 13.3 68 3.4 ESE 15 22 8 12 1028.9 1028.8 0.0
24/10:30am 19.0 17.6 13.4 70 3.2 ESE 13 22 7 12 1028.9 1028.8 0.0
24/10:00am 18.8 17.2 13.9 73 2.8 ENE 15 19 8 10 1028.9 1028.8 0.0
24/09:30am 17.3 16.9 14.2 82 1.8 E 9 15 5 8 1028.8 1028.7 0.0
24/09:00am 14.5 14.6 14.5 100 0.0 ENE 7 13 4 7 1028.8 1028.7 0.0
24/08:30am 12.5 13.3 12.5 100 0.0 CALM 0 6 0 3 1028.6 1028.5 0.0
24/08:06am 10.2 9.9 10.2 100 0.0 W 2 6 1 3 1028.4 1028.3 0.0
24/08:00am 9.4 8.2 9.4 100 0.0 W 6 7 3 4 1028.3 1028.2 0.0
24/07:30am 7.8 5.6 7.8 100 0.0 WNW 9 11 5 6 1027.9 1027.8 0.0
24/07:00am 7.8 6.0 7.8 100 0.0 W 7 9 4 5 1027.7 1027.6 0.0
24/06:33am 8.9 7.5 8.9 100 0.0 WSW 6 7 3 4 1027.5 1027.4 0.0
24/06:30am 9.0 7.6 9.0 100 0.0 WSW 6 7 3 4 1027.5 1027.4 0.0
24/06:14am 8.9 8.7 8.9 100 0.0 CALM 0 0 0 0 1027.4 1027.3 0.0
24/06:00am 9.7 8.5 9.7 100 0.0 ENE 6 9 3 5 1027.4 1027.3 0.0
24/05:30am 9.0 6.7 9.0 100 0.0 ENE 11 11 6 6 1027.1 1026.9 0.0
24/05:00am 9.4 7.2 9.4 100 0.0 ENE 11 11 6 6 1026.9 1026.7 0.0
24/04:59am 9.5 7.3 9.5 100 0.0 ENE 11 11 6 6 1026.9 1026.7 0.0
24/04:48am 9.6 7.5 9.6 100 0.0 ENE 11 13 6 7 1026.9 1026.7 0.0
24/04:30am 9.4 7.2 9.4 100 0.0 ENE 11 13 6 7 1026.9 1026.7 0.0
24/04:00am 10.1 8.5 10.1 100 0.0 ENE 9 11 5 6 1026.8 1026.6 0.0
24/03:30am 10.3 8.7 10.3 100 0.0 E 9 11 5 6 1026.9 1026.7 0.0
24/03:00am 10.2 8.6 10.2 100 0.0 E 9 11 5 6 1026.8 1026.6 0.0
24/02:30am 10.2 8.2 10.1 99 0.1 E 11 13 6 7 1026.9 1026.7 0.0
24/02:00am 10.2 7.8 10.1 99 0.1 E 13 17 7 9 1026.8 1026.6 0.0
24/01:30am 10.4 7.7 10.2 99 0.1 E 15 17 8 9 1027.0 1026.8 0.0
24/01:00am 10.7 8.4 10.5 99 0.1 E 13 17 7 9 1026.9 1026.7 0.0
24/12:30am 10.9 9.1 10.7 99 0.1 E 11 13 6 7 1027.1 1026.9 0.0
24/12:00am 11.3 9.2 11.0 98 0.2 E 13 15 7 8 1027.3 1027.2 0.0
 
Date/Time
CST
Temp
°C
App
Temp
°C
Dew
Point
°C
Rel
Hum
%
Delta-T
°C
Wind Press
QNH
hPa
Press
MSL
hPa
Rain since
9am
mm
Dir  Spd
km/h
Gust
km/h
Spd
kts
Gust
kts
23/11:30pm 12.1 9.6 11.2 94 0.5 ENE 15 17 8 9 1027.3 1027.2 0.0
23/11:00pm 13.1 10.4 11.8 92 0.7 E 17 19 9 10 1027.7 1027.6 0.0
23/10:30pm 13.7 11.4 11.9 89 1.0 E 15 19 8 10 1027.9 1027.8 0.0
23/10:00pm 14.0 12.3 12.4 90 0.9 E 13 19 7 10 1027.9 1027.8 0.0
23/09:30pm 14.7 12.3 12.6 87 1.1 ESE 17 20 9 11 1027.6 1027.5 0.0
23/09:00pm 14.7 12.5 12.2 85 1.4 ESE 15 19 8 10 1027.6 1027.5 0.0
23/08:30pm 14.9 12.2 11.7 81 1.7 ESE 17 19 9 10 1027.5 1027.4 0.0
23/08:00pm 15.4 12.8 12.0 80 1.9 SE 17 22 9 12 1027.2 1027.0 0.0
23/07:30pm 15.5 12.5 11.9 79 1.9 SE 19 22 10 12 1027.1 1026.9 0.0
23/07:00pm 16.0 12.8 12.0 77 2.2 SE 20 26 11 14 1027.0 1026.8 0.0
23/06:30pm 16.4 12.3 11.6 73 2.6 SE 24 30 13 16 1027.0 1026.8 0.0
23/06:00pm 17.1 12.3 11.6 70 3.0 SE 28 37 15 20 1026.8 1026.6 0.0
23/05:30pm 17.9 12.7 11.5 66 3.5 SE 30 37 16 20 1026.6 1026.4 0.0
23/05:00pm 18.5 13.0 12.0 66 3.6 SE 32 39 17 21 1026.3 1026.1 0.0
23/04:30pm 19.0 13.3 11.3 61 4.2 SE 32 41 17 22 1026.2 1026.0 0.0
23/04:00pm 19.4 13.9 10.7 57 4.7 SE 30 43 16 23 1026.1 1025.9 0.0
23/03:30pm 19.7 13.9 10.9 57 4.8 SE 32 39 17 21 1026.1 1025.9 0.0
23/03:00pm 19.7 14.0 9.9 53 5.2 SE 30 39 16 21 1026.2 1026.0 0.0
23/02:30pm 19.9 14.5 9.5 51 5.5 SE 28 37 15 20 1026.3 1026.1 0.0
23/02:00pm 19.4 14.0 9.6 53 5.2 SE 28 37 15 20 1026.5 1026.3 0.0
23/01:30pm 20.4 15.3 9.3 49 5.9 ESE 26 35 14 19 1026.7 1026.5 0.0
23/01:00pm 19.8 15.0 8.8 49 5.8 ESE 24 35 13 19 1027.3 1027.2 0.0
23/12:30pm 20.1 16.3 9.7 51 5.5 ESE 20 28 11 15 1027.8 1027.7 0.0
23/12:00pm 19.6 15.7 9.5 52 5.3 ESE 20 30 11 16 1028.1 1028.0 0.0
23/11:30am 19.8 16.3 10.2 54 5.1 E 19 24 10 13 1028.4 1028.3 0.0
23/11:00am 19.2 15.3 8.8 51 5.4 E 19 28 10 15 1028.7 1028.6 0.0
23/10:30am 18.8 15.6 8.5 51 5.3 ENE 15 22 8 12 1028.9 1028.8 0.0
23/10:00am 18.3 14.8 8.8 54 4.9 ENE 17 24 9 13 1029.1 1029.0 0.0
23/09:30am 16.8 14.4 10.0 64 3.6 ENE 13 15 7 8 1029.2 1029.1 0.0
23/09:00am 14.5 13.2 12.5 88 1.1 ENE 11 15 6 8 1029.1 1029.0 0.0
23/08:30am 11.4 11.8 11.4 100 0.0 CALM 0 0 0 0 1029.1 1029.0 0.0
23/08:00am 9.2 7.9 9.2 100 0.0 S 6 7 3 4 1028.7 1028.6 0.0
23/07:30am 8.1 6.9 8.1 100 0.0 SSE 4 6 2 3 1028.3 1028.2 0.0
23/07:00am 8.4 6.7 8.4 100 0.0 E 7 7 4 4 1028.1 1028.0 0.0
23/06:30am 7.6 5.3 7.6 100 0.0 ENE 9 11 5 6 1027.7 1027.6 0.0
23/06:00am 7.5 4.5 7.5 100 0.0 NE 13 13 7 7 1027.3 1027.2 0.0
23/05:30am 7.3 4.2 7.3 100 0.0 NE 13 15 7 8 1027.2 1027.0 0.0
23/05:00am 7.8 5.2 7.8 100 0.0 NNE 11 13 6 7 1027.2 1027.0 0.0
23/04:30am 8.5 6.1 8.5 100 0.0 N 11 11 6 6 1027.1 1026.9 0.0
23/04:00am 7.8 5.6 7.8 100 0.0 N 9 9 5 5 1027.0 1026.8 0.0
23/03:30am 8.5 6.1 8.5 100 0.0 NNE 11 11 6 6 1026.9 1026.7 0.0
23/03:00am 8.5 6.1 8.5 100 0.0 NE 11 13 6 7 1027.0 1026.8 0.0
23/02:30am 8.7 6.3 8.6 99 0.0 NE 11 13 6 7 1027.2 1027.0 0.0
23/02:00am 8.4 5.5 8.3 99 0.0 ENE 13 13 7 7 1027.4 1027.3 0.0

Other formats

Comma delimited format used in spreadsheet applications
http://www.bom.gov.au/fwo/IDS60801/IDS60801.94651.axf

JavaScript Object Notation format (JSON) in row-major order
http://www.bom.gov.au/fwo/IDS60801/IDS60801.94651.json

Data quality

Most of these data are generated automatically and are frequently updated. Quality checks on data are not normally performed. It is possible for incorrect values to appear. Refer to information at About Latest Weather Observations and please check the disclaimer before using these data.